sensor_id;sensor_type;location;lat;lon;timestamp;pressure;altitude;pressure_sealevel;temperature;humidity
75938;BME280;64615;32.062;34.834;2023-02-15T00:01:14;101117.06;;;19.68;48.08
75938;BME280;64615;32.062;34.834;2023-02-15T00:03:40;101118.72;;;19.69;48.17
75938;BME280;64615;32.062;34.834;2023-02-15T00:06:05;101126.81;;;19.69;47.97
75938;BME280;64615;32.062;34.834;2023-02-15T00:08:32;101130.34;;;19.70;47.94
75938;BME280;64615;32.062;34.834;2023-02-15T00:11:12;101124.38;;;19.68;48.11
75938;BME280;64615;32.062;34.834;2023-02-15T00:13:38;101119.63;;;19.63;47.85
75938;BME280;64615;32.062;34.834;2023-02-15T00:16:11;101119.63;;;19.63;47.89
75938;BME280;64615;32.062;34.834;2023-02-15T00:18:39;101125.16;;;19.68;47.83
75938;BME280;64615;32.062;34.834;2023-02-15T00:21:06;101132.22;;;19.69;48.01
75938;BME280;64615;32.062;34.834;2023-02-15T00:23:33;101132.00;;;19.71;48.15
75938;BME280;64615;32.062;34.834;2023-02-15T00:26:12;101130.97;;;19.72;48.30
75938;BME280;64615;32.062;34.834;2023-02-15T00:28:38;101125.31;;;19.73;48.28
75938;BME280;64615;32.062;34.834;2023-02-15T00:31:05;101127.56;;;19.76;48.48
75938;BME280;64615;32.062;34.834;2023-02-15T00:33:31;101131.44;;;19.80;48.03
75938;BME280;64615;32.062;34.834;2023-02-15T00:35:58;101132.28;;;19.81;48.06
75938;BME280;64615;32.062;34.834;2023-02-15T00:38:27;101142.03;;;19.82;48.18
75938;BME280;64615;32.062;34.834;2023-02-15T00:40:57;101143.44;;;19.84;47.82
75938;BME280;64615;32.062;34.834;2023-02-15T00:43:23;101150.50;;;19.85;49.54
75938;BME280;64615;32.062;34.834;2023-02-15T00:45:49;101151.78;;;19.83;49.68
75938;BME280;64615;32.062;34.834;2023-02-15T00:48:15;101154.25;;;19.84;48.93
75938;BME280;64615;32.062;34.834;2023-02-15T00:50:40;101161.53;;;19.84;49.57
75938;BME280;64615;32.062;34.834;2023-02-15T00:53:06;101155.53;;;19.82;49.37
75938;BME280;64615;32.062;34.834;2023-02-15T00:55:32;101160.13;;;19.81;49.19
75938;BME280;64615;32.062;34.834;2023-02-15T00:57:58;101151.41;;;19.79;49.14
75938;BME280;64615;32.062;34.834;2023-02-15T01:00:24;101150.81;;;19.77;49.05
75938;BME280;64615;32.062;34.834;2023-02-15T01:02:49;101149.19;;;19.76;49.10
75938;BME280;64615;32.062;34.834;2023-02-15T01:05:18;101150.22;;;19.75;48.74
75938;BME280;64615;32.062;34.834;2023-02-15T01:07:44;101158.53;;;19.74;48.84
75938;BME280;64615;32.062;34.834;2023-02-15T01:10:09;101152.56;;;19.72;48.91
75938;BME280;64615;32.062;34.834;2023-02-15T01:12:35;101147.38;;;19.70;49.06
75938;BME280;64615;32.062;34.834;2023-02-15T01:15:01;101145.72;;;19.69;48.79
75938;BME280;64615;32.062;34.834;2023-02-15T01:17:26;101141.63;;;19.67;48.59
75938;BME280;64615;32.062;34.834;2023-02-15T01:19:52;101148.91;;;19.66;48.50
75938;BME280;64615;32.062;34.834;2023-02-15T01:22:18;101149.34;;;19.63;48.75
75938;BME280;64615;32.062;34.834;2023-02-15T01:24:44;101145.16;;;19.67;48.18
75938;BME280;64615;32.062;34.834;2023-02-15T01:27:10;101155.13;;;19.67;48.30
75938;BME280;64615;32.062;34.834;2023-02-15T01:29:36;101147.72;;;19.62;48.26
75938;BME280;64615;32.062;34.834;2023-02-15T01:32:02;101146.88;;;19.62;48.17
75938;BME280;64615;32.062;34.834;2023-02-15T01:34:29;101152.03;;;19.63;48.14
75938;BME280;64615;32.062;34.834;2023-02-15T01:36:55;101149.34;;;19.63;48.14
75938;BME280;64615;32.062;34.834;2023-02-15T01:39:21;101150.41;;;19.62;48.20
75938;BME280;64615;32.062;34.834;2023-02-15T01:41:46;101148.97;;;19.60;48.04
75938;BME280;64615;32.062;34.834;2023-02-15T01:44:47;101150.63;;;19.61;47.97
75938;BME280;64615;32.062;34.834;2023-02-15T01:49:46;101160.13;;;19.63;47.85
75938;BME280;64615;32.062;34.834;2023-02-15T01:52:16;101154.72;;;19.63;47.68
75938;BME280;64615;32.062;34.834;2023-02-15T01:54:44;101163.09;;;19.62;48.07
75938;BME280;64615;32.062;34.834;2023-02-15T01:57:18;101160.59;;;19.60;48.03
75938;BME280;64615;32.062;34.834;2023-02-15T01:59:49;101155.81;;;19.62;48.06
75938;BME280;64615;32.062;34.834;2023-02-15T02:02:17;101155.56;;;19.64;47.89
75938;BME280;64615;32.062;34.834;2023-02-15T02:04:53;101159.56;;;19.61;48.00
75938;BME280;64615;32.062;34.834;2023-02-15T02:07:23;101155.44;;;19.59;47.72
75938;BME280;64615;32.062;34.834;2023-02-15T02:09:49;101163.66;;;19.64;47.85
75938;BME280;64615;32.062;34.834;2023-02-15T02:12:17;101159.69;;;19.66;47.69
75938;BME280;64615;32.062;34.834;2023-02-15T02:14:44;101155.22;;;19.60;47.65
75938;BME280;64615;32.062;34.834;2023-02-15T02:17:34;101160.13;;;19.63;47.71
75938;BME280;64615;32.062;34.834;2023-02-15T02:25:53;101154.16;;;19.61;47.69
75938;BME280;64615;32.062;34.834;2023-02-15T02:28:51;101149.81;;;19.60;47.85
75938;BME280;64615;32.062;34.834;2023-02-15T02:31:47;101153.56;;;19.59;47.84
75938;BME280;64615;32.062;34.834;2023-02-15T02:34:21;101151.06;;;19.58;47.95
75938;BME280;64615;32.062;34.834;2023-02-15T02:42:47;101152.50;;;19.60;47.97
75938;BME280;64615;32.062;34.834;2023-02-15T02:50:26;101154.16;;;19.61;47.67
75938;BME280;64615;32.062;34.834;2023-02-15T02:52:54;101161.22;;;19.62;47.67
75938;BME280;64615;32.062;34.834;2023-02-15T02:55:31;101163.44;;;19.65;47.57
75938;BME280;64615;32.062;34.834;2023-02-15T02:58:03;101166.75;;;19.67;47.49
75938;BME280;64615;32.062;34.834;2023-02-15T03:00:39;101180.47;;;19.66;47.71
75938;BME280;64615;32.062;34.834;2023-02-15T03:03:10;101179.66;;;19.65;47.62
75938;BME280;64615;32.062;34.834;2023-02-15T03:05:43;101181.31;;;19.66;47.40
75938;BME280;64615;32.062;34.834;2023-02-15T03:08:10;101176.72;;;19.67;47.78
75938;BME280;64615;32.062;34.834;2023-02-15T03:10:38;101183.78;;;19.68;47.45
75938;BME280;64615;32.062;34.834;2023-02-15T03:13:06;101171.56;;;19.65;47.47
75938;BME280;64615;32.062;34.834;2023-02-15T03:15:39;101176.13;;;19.65;47.29
75938;BME280;64615;32.062;34.834;2023-02-15T03:18:36;101198.09;;;19.68;47.44
75938;BME280;64615;32.062;34.834;2023-02-15T03:21:04;101197.72;;;19.65;47.43
75938;BME280;64615;32.062;34.834;2023-02-15T03:23:32;101197.38;;;19.61;47.30
75938;BME280;64615;32.062;34.834;2023-02-15T03:26:04;101200.28;;;19.60;47.23
75938;BME280;64615;32.062;34.834;2023-02-15T03:28:52;101208.59;;;19.58;47.19
75938;BME280;64615;32.062;34.834;2023-02-15T03:31:21;101201.19;;;19.54;47.19
75938;BME280;64615;32.062;34.834;2023-02-15T03:33:54;101208.25;;;19.55;47.06
75938;BME280;64615;32.062;34.834;2023-02-15T03:36:33;101214.47;;;19.55;47.02
75938;BME280;64615;32.062;34.834;2023-02-15T03:44:32;101218.81;;;19.56;47.08
75938;BME280;64615;32.062;34.834;2023-02-15T03:47:09;101224.44;;;19.55;47.18
75938;BME280;64615;32.062;34.834;2023-02-15T03:50:45;101227.16;;;19.55;47.05
75938;BME280;64615;32.062;34.834;2023-02-15T03:52:59;101229.03;;;19.54;46.85
75938;BME280;64615;32.062;34.834;2023-02-15T03:55:27;101225.75;;;19.52;47.08
75938;BME280;64615;32.062;34.834;2023-02-15T03:57:53;101234.00;;;19.57;47.12
75938;BME280;64615;32.062;34.834;2023-02-15T04:00:39;101233.38;;;19.55;46.82
75938;BME280;64615;32.062;34.834;2023-02-15T04:06:02;101236.28;;;19.54;47.08
75938;BME280;64615;32.062;34.834;2023-02-15T04:08:28;101237.72;;;19.56;46.73
75938;BME280;64615;32.062;34.834;2023-02-15T04:11:12;101238.16;;;19.53;47.53
75938;BME280;64615;32.062;34.834;2023-02-15T04:13:38;101241.25;;;19.57;48.13
75938;BME280;64615;32.062;34.834;2023-02-15T04:16:04;101245.59;;;19.58;47.81
75938;BME280;64615;32.062;34.834;2023-02-15T04:21:20;101260.53;;;19.60;48.21
75938;BME280;64615;32.062;34.834;2023-02-15T04:24:05;101254.53;;;19.58;48.12
75938;BME280;64615;32.062;34.834;2023-02-15T04:26:49;101259.25;;;19.63;48.23
75938;BME280;64615;32.062;34.834;2023-02-15T04:29:18;101260.31;;;19.62;48.35
75938;BME280;64615;32.062;34.834;2023-02-15T04:31:44;101259.69;;;19.60;48.43
75938;BME280;64615;32.062;34.834;2023-02-15T04:34:09;101264.28;;;19.59;48.30
75938;BME280;64615;32.062;34.834;2023-02-15T04:36:37;101275.84;;;19.66;48.07
75938;BME280;64615;32.062;34.834;2023-02-15T04:39:02;101270.44;;;19.66;48.02
75938;BME280;64615;32.062;34.834;2023-02-15T04:41:28;101280.19;;;19.67;48.07
75938;BME280;64615;32.062;34.834;2023-02-15T04:43:54;101287.22;;;19.68;48.64
75938;BME280;64615;32.062;34.834;2023-02-15T04:46:19;101288.94;;;19.63;48.89
75938;BME280;64615;32.062;34.834;2023-02-15T04:48:45;101279.81;;;19.64;48.60
75938;BME280;64615;32.062;34.834;2023-02-15T04:51:11;101285.13;;;19.70;48.47
75938;BME280;64615;32.062;34.834;2023-02-15T04:53:36;101290.91;;;19.92;47.69
75938;BME280;64615;32.062;34.834;2023-02-15T04:56:02;101297.44;;;20.03;47.46
75938;BME280;64615;32.062;34.834;2023-02-15T04:58:28;101308.75;;;20.11;47.32
75938;BME280;64615;32.062;34.834;2023-02-15T05:00:57;101304.69;;;20.20;46.98
75938;BME280;64615;32.062;34.834;2023-02-15T05:03:23;101312.06;;;20.13;48.00
75938;BME280;64615;32.062;34.834;2023-02-15T05:05:49;101311.78;;;20.03;47.87
75938;BME280;64615;32.062;34.834;2023-02-15T05:08:15;101316.94;;;20.05;48.05
75938;BME280;64615;32.062;34.834;2023-02-15T05:10:42;101318.97;;;19.91;47.94
75938;BME280;64615;32.062;34.834;2023-02-15T05:13:07;101319.66;;;19.86;47.59
75938;BME280;64615;32.062;34.834;2023-02-15T05:15:33;101318.47;;;19.82;47.64
75938;BME280;64615;32.062;34.834;2023-02-15T05:17:59;101318.00;;;19.85;47.62
75938;BME280;64615;32.062;34.834;2023-02-15T05:20:24;101311.69;;;19.92;47.87
75938;BME280;64615;32.062;34.834;2023-02-15T05:22:53;101321.06;;;19.89;47.81
75938;BME280;64615;32.062;34.834;2023-02-15T05:25:19;101331.66;;;19.91;47.30
75938;BME280;64615;32.062;34.834;2023-02-15T05:28:04;101330.69;;;20.03;47.36
75938;BME280;64615;32.062;34.834;2023-02-15T05:30:48;101329.88;;;20.03;47.64
75938;BME280;64615;32.062;34.834;2023-02-15T05:33:15;101329.50;;;19.99;47.46
75938;BME280;64615;32.062;34.834;2023-02-15T05:35:40;101326.13;;;20.04;47.41
75938;BME280;64615;32.062;34.834;2023-02-15T05:38:06;101336.75;;;20.17;47.28
75938;BME280;64615;32.062;34.834;2023-02-15T05:40:32;101343.75;;;20.24;46.72
75938;BME280;64615;32.062;34.834;2023-02-15T05:42:58;101341.78;;;20.32;47.07
75938;BME280;64615;32.062;34.834;2023-02-15T05:45:24;101340.53;;;20.34;46.71
75938;BME280;64615;32.062;34.834;2023-02-15T05:47:50;101346.38;;;20.31;46.35
75938;BME280;64615;32.062;34.834;2023-02-15T05:50:15;101351.16;;;20.47;45.76
75938;BME280;64615;32.062;34.834;2023-02-15T05:52:41;101351.03;;;20.72;44.68
75938;BME280;64615;32.062;34.834;2023-02-15T05:55:07;101350.59;;;20.87;44.86
75938;BME280;64615;32.062;34.834;2023-02-15T05:57:35;101351.44;;;20.87;44.73
75938;BME280;64615;32.062;34.834;2023-02-15T06:00:02;101359.47;;;20.64;45.36
75938;BME280;64615;32.062;34.834;2023-02-15T06:02:30;101355.28;;;20.50;46.00
75938;BME280;64615;32.062;34.834;2023-02-15T06:04:58;101360.41;;;20.40;45.82
75938;BME280;64615;32.062;34.834;2023-02-15T06:07:24;101359.88;;;20.31;46.16
75938;BME280;64615;32.062;34.834;2023-02-15T06:09:50;101368.44;;;20.28;46.32
75938;BME280;64615;32.062;34.834;2023-02-15T06:12:15;101377.00;;;20.25;46.47
75938;BME280;64615;32.062;34.834;2023-02-15T06:14:41;101381.34;;;20.26;46.51
75938;BME280;64615;32.062;34.834;2023-02-15T06:17:07;101386.75;;;20.26;46.56
75938;BME280;64615;32.062;34.834;2023-02-15T06:19:32;101378.88;;;20.24;46.97
75938;BME280;64615;32.062;34.834;2023-02-15T06:21:58;101376.75;;;20.26;46.81
75938;BME280;64615;32.062;34.834;2023-02-15T06:24:24;101381.81;;;20.23;47.35
75938;BME280;64615;32.062;34.834;2023-02-15T06:26:49;101390.75;;;20.23;46.98
75938;BME280;64615;32.062;34.834;2023-02-15T06:29:15;101392.00;;;20.21;47.04
75938;BME280;64615;32.062;34.834;2023-02-15T06:31:41;101395.94;;;20.25;47.18
75938;BME280;64615;32.062;34.834;2023-02-15T06:34:06;101402.53;;;20.29;47.30
75938;BME280;64615;32.062;34.834;2023-02-15T06:36:32;101389.25;;;20.27;47.17
75938;BME280;64615;32.062;34.834;2023-02-15T06:38:58;101394.44;;;20.29;47.15
75938;BME280;64615;32.062;34.834;2023-02-15T06:41:23;101401.06;;;20.33;47.08
75938;BME280;64615;32.062;34.834;2023-02-15T06:43:49;101402.53;;;20.29;46.87
75938;BME280;64615;32.062;34.834;2023-02-15T06:46:15;101403.44;;;20.23;47.13
75938;BME280;64615;32.062;34.834;2023-02-15T06:48:40;101403.06;;;20.19;47.67
75938;BME280;64615;32.062;34.834;2023-02-15T06:51:06;101385.63;;;20.15;47.59
75938;BME280;64615;32.062;34.834;2023-02-15T06:53:32;101382.13;;;20.15;47.64
75938;BME280;64615;32.062;34.834;2023-02-15T06:56:05;101390.38;;;20.20;47.85
75938;BME280;64615;32.062;34.834;2023-02-15T06:58:41;101398.09;;;20.53;46.74
75938;BME280;64615;32.062;34.834;2023-02-15T07:01:08;101382.06;;;20.69;45.08
75938;BME280;64615;32.062;34.834;2023-02-15T07:03:34;101394.91;;;20.74;44.87
75938;BME280;64615;32.062;34.834;2023-02-15T07:06:01;101394.34;;;20.84;44.48
75938;BME280;64615;32.062;34.834;2023-02-15T07:08:28;101384.34;;;20.84;44.70
75938;BME280;64615;32.062;34.834;2023-02-15T07:10:55;101382.16;;;20.93;44.38
75938;BME280;64615;32.062;34.834;2023-02-15T07:13:44;101381.22;;;20.99;44.88
75938;BME280;64615;32.062;34.834;2023-02-15T07:16:10;101386.41;;;21.00;44.75
75938;BME280;64615;32.062;34.834;2023-02-15T07:18:36;101387.22;;;21.01;44.52
75938;BME280;64615;32.062;34.834;2023-02-15T07:21:02;101390.28;;;21.04;44.60
75938;BME280;64615;32.062;34.834;2023-02-15T07:23:28;101391.59;;;21.02;44.55
75938;BME280;64615;32.062;34.834;2023-02-15T07:25:57;101389.50;;;21.04;44.64
75938;BME280;64615;32.062;34.834;2023-02-15T07:28:24;101386.78;;;21.04;44.48
75938;BME280;64615;32.062;34.834;2023-02-15T07:30:49;101394.66;;;21.05;44.67
75938;BME280;64615;32.062;34.834;2023-02-15T07:33:15;101396.41;;;21.00;44.44
75938;BME280;64615;32.062;34.834;2023-02-15T07:35:51;101401.38;;;21.03;44.72
75938;BME280;64615;32.062;34.834;2023-02-15T07:38:18;101402.78;;;21.05;44.55
75938;BME280;64615;32.062;34.834;2023-02-15T07:40:44;101402.56;;;21.07;44.47
75938;BME280;64615;32.062;34.834;2023-02-15T07:43:10;101402.56;;;21.07;44.18
75938;BME280;64615;32.062;34.834;2023-02-15T07:45:36;101402.78;;;21.05;43.68
75938;BME280;64615;32.062;34.834;2023-02-15T07:48:02;101398.41;;;21.04;44.25
75938;BME280;64615;32.062;34.834;2023-02-15T07:50:28;101401.38;;;21.03;44.62
75938;BME280;64615;32.062;34.834;2023-02-15T07:52:54;101406.78;;;21.03;44.82
75938;BME280;64615;32.062;34.834;2023-02-15T07:55:20;101399.50;;;21.03;44.74
75938;BME280;64615;32.062;34.834;2023-02-15T07:57:47;101399.94;;;21.00;44.86
75938;BME280;64615;32.062;34.834;2023-02-15T08:00:15;101401.25;;;20.98;44.52
75938;BME280;64615;32.062;34.834;2023-02-15T08:02:42;101408.97;;;20.94;43.93
75938;BME280;64615;32.062;34.834;2023-02-15T08:05:12;101405.91;;;20.91;44.81
75938;BME280;64615;32.062;34.834;2023-02-15T08:07:38;101399.09;;;20.88;44.83
75938;BME280;64615;32.062;34.834;2023-02-15T08:10:04;101408.69;;;20.84;44.85
75938;BME280;64615;32.062;34.834;2023-02-15T08:12:29;101406.47;;;20.81;44.15
75938;BME280;64615;32.062;34.834;2023-02-15T08:14:55;101409.25;;;20.75;43.73
75938;BME280;64615;32.062;34.834;2023-02-15T08:17:21;101407.31;;;20.63;43.90
75938;BME280;64615;32.062;34.834;2023-02-15T08:19:47;101402.16;;;20.62;43.82
75938;BME280;64615;32.062;34.834;2023-02-15T08:22:13;101400.38;;;20.56;44.18
75938;BME280;64615;32.062;34.834;2023-02-15T08:24:40;101393.97;;;20.50;43.74
75938;BME280;64615;32.062;34.834;2023-02-15T08:27:08;101399.84;;;20.47;43.80
75938;BME280;64615;32.062;34.834;2023-02-15T08:29:35;101395.03;;;20.49;43.73
75938;BME280;64615;32.062;34.834;2023-02-15T08:32:12;101393.84;;;20.45;44.52
75938;BME280;64615;32.062;34.834;2023-02-15T08:34:40;101394.28;;;20.42;44.86
75938;BME280;64615;32.062;34.834;2023-02-15T08:37:06;101385.59;;;20.40;44.75
75938;BME280;64615;32.062;34.834;2023-02-15T08:39:32;101392.03;;;20.39;44.50
75938;BME280;64615;32.062;34.834;2023-02-15T08:41:57;101389.34;;;20.39;44.50
75938;BME280;64615;32.062;34.834;2023-02-15T08:44:23;101393.69;;;20.40;44.50
75938;BME280;64615;32.062;34.834;2023-02-15T08:46:49;101384.97;;;20.38;44.63
75938;BME280;64615;32.062;34.834;2023-02-15T08:49:17;101387.06;;;20.36;44.58
75938;BME280;64615;32.062;34.834;2023-02-15T08:51:43;101381.22;;;20.39;44.93
75938;BME280;64615;32.062;34.834;2023-02-15T08:54:12;101379.94;;;20.42;45.17
75938;BME280;64615;32.062;34.834;2023-02-15T08:56:40;101382.88;;;20.40;44.99
75938;BME280;64615;32.062;34.834;2023-02-15T08:59:12;101385.19;;;20.37;45.15
75938;BME280;64615;32.062;34.834;2023-02-15T09:01:38;101385.88;;;20.32;45.01
75938;BME280;64615;32.062;34.834;2023-02-15T09:04:06;101373.22;;;20.26;44.95
75938;BME280;64615;32.062;34.834;2023-02-15T09:06:35;101379.25;;;20.28;44.90
75938;BME280;64615;32.062;34.834;2023-02-15T09:09:02;101378.63;;;20.26;44.94
75938;BME280;64615;32.062;34.834;2023-02-15T09:11:32;101378.63;;;20.26;45.15
75938;BME280;64615;32.062;34.834;2023-02-15T09:14:00;101371.81;;;20.23;45.40
75938;BME280;64615;32.062;34.834;2023-02-15T09:16:28;101381.59;;;20.24;45.58
75938;BME280;64615;32.062;34.834;2023-02-15T09:18:55;101366.41;;;20.23;45.35
75938;BME280;64615;32.062;34.834;2023-02-15T09:21:24;101369.34;;;20.22;45.28
75938;BME280;64615;32.062;34.834;2023-02-15T09:23:56;101370.63;;;20.19;45.73
75938;BME280;64615;32.062;34.834;2023-02-15T09:26:24;101374.16;;;20.20;45.38
75938;BME280;64615;32.062;34.834;2023-02-15T09:28:54;101360.41;;;20.21;45.04
75938;BME280;64615;32.062;34.834;2023-02-15T09:31:23;101358.16;;;20.18;45.35
75938;BME280;64615;32.062;34.834;2023-02-15T09:33:49;101359.34;;;20.22;45.42
75938;BME280;64615;32.062;34.834;2023-02-15T09:38:40;101346.81;;;20.28;45.12
75938;BME280;64615;32.062;34.834;2023-02-15T09:44:00;101342.66;;;20.25;45.36
75938;BME280;64615;32.062;34.834;2023-02-15T09:49:11;101329.16;;;20.25;45.02
75938;BME280;64615;32.062;34.834;2023-02-15T09:51:47;101332.94;;;20.24;44.79
75938;BME280;64615;32.062;34.834;2023-02-15T09:56:58;101331.28;;;20.23;43.99
75938;BME280;64615;32.062;34.834;2023-02-15T10:00:30;101327.59;;;20.18;44.33
75938;BME280;64615;32.062;34.834;2023-02-15T10:08:03;101327.75;;;20.23;44.07
75938;BME280;64615;32.062;34.834;2023-02-15T10:11:03;101317.75;;;20.23;44.00
75938;BME280;64615;32.062;34.834;2023-02-15T10:27:45;101322.88;;;20.13;44.27
75938;BME280;64615;32.062;34.834;2023-02-15T10:30:24;101316.84;;;20.11;44.32
75938;BME280;64615;32.062;34.834;2023-02-15T10:32:59;101318.72;;;20.11;44.64
75938;BME280;64615;32.062;34.834;2023-02-15T10:41:27;101306.94;;;20.05;44.54
75938;BME280;64615;32.062;34.834;2023-02-15T10:44:09;101310.72;;;20.04;44.77
75938;BME280;64615;32.062;34.834;2023-02-15T10:55:23;101322.44;;;19.98;44.40
75938;BME280;64615;32.062;34.834;2023-02-15T11:04:14;101312.59;;;20.04;45.02
75938;BME280;64615;32.062;34.834;2023-02-15T11:06:54;101321.47;;;19.93;44.61
75938;BME280;64615;32.062;34.834;2023-02-15T11:09:25;101316.50;;;19.71;43.38
75938;BME280;64615;32.062;34.834;2023-02-15T11:11:56;101312.38;;;19.69;43.58
75938;BME280;64615;32.062;34.834;2023-02-15T11:14:49;101316.72;;;19.70;44.18
75938;BME280;64615;32.062;34.834;2023-02-15T11:17:30;101320.56;;;19.80;44.06
75938;BME280;64615;32.062;34.834;2023-02-15T11:20:19;101333.53;;;19.90;43.90
75938;BME280;64615;32.062;34.834;2023-02-15T11:22:49;101329.31;;;19.94;43.93
75938;BME280;64615;32.062;34.834;2023-02-15T11:25:30;101341.09;;;20.00;44.24
75938;BME280;64615;32.062;34.834;2023-02-15T11:27:56;101343.81;;;20.00;44.42
75938;BME280;64615;32.062;34.834;2023-02-15T11:30:25;101347.34;;;20.00;44.64
75938;BME280;64615;32.062;34.834;2023-02-15T11:32:58;101346.09;;;20.03;44.58
75938;BME280;64615;32.062;34.834;2023-02-15T11:38:31;101340.06;;;20.01;45.00
75938;BME280;64615;32.062;34.834;2023-02-15T11:41:09;101340.53;;;19.98;44.80
75938;BME280;64615;32.062;34.834;2023-02-15T11:46:08;101324.75;;;19.95;44.49
75938;BME280;64615;32.062;34.834;2023-02-15T11:48:35;101330.16;;;19.95;44.77
75938;BME280;64615;32.062;34.834;2023-02-15T11:51:01;101323.34;;;19.92;44.61
75938;BME280;64615;32.062;34.834;2023-02-15T11:53:32;101328.53;;;19.94;44.59
75938;BME280;64615;32.062;34.834;2023-02-15T11:55:59;101331.81;;;19.96;44.49
75938;BME280;64615;32.062;34.834;2023-02-15T12:01:33;101336.63;;;19.94;44.72
75938;BME280;64615;32.062;34.834;2023-02-15T12:04:26;101336.38;;;19.95;44.50
75938;BME280;64615;32.062;34.834;2023-02-15T12:07:00;101338.25;;;19.95;44.58
75938;BME280;64615;32.062;34.834;2023-02-15T12:12:24;101330.91;;;20.02;44.66
75938;BME280;64615;32.062;34.834;2023-02-15T12:14:56;101323.28;;;19.99;44.56
75938;BME280;64615;32.062;34.834;2023-02-15T12:17:24;101330.44;;;20.05;44.39
75938;BME280;64615;32.062;34.834;2023-02-15T12:19:55;101320.31;;;20.00;44.28
75938;BME280;64615;32.062;34.834;2023-02-15T12:24:52;101331.28;;;20.05;44.59
75938;BME280;64615;32.062;34.834;2023-02-15T12:27:20;101337.28;;;20.07;44.37
75938;BME280;64615;32.062;34.834;2023-02-15T12:29:53;101333.75;;;20.07;44.40
75938;BME280;64615;32.062;34.834;2023-02-15T12:32:26;101331.88;;;20.07;44.37
75938;BME280;64615;32.062;34.834;2023-02-15T12:35:13;101328.34;;;20.07;44.57
75938;BME280;64615;32.062;34.834;2023-02-15T12:38:02;101333.97;;;20.05;44.36
75938;BME280;64615;32.062;34.834;2023-02-15T12:40:30;101335.84;;;20.05;44.59
75938;BME280;64615;32.062;34.834;2023-02-15T12:42:56;101336.09;;;20.03;44.83
75938;BME280;64615;32.062;34.834;2023-02-15T12:45:26;101331.53;;;20.04;44.67
75938;BME280;64615;32.062;34.834;2023-02-15T12:48:18;101338.56;;;20.05;44.63
75938;BME280;64615;32.062;34.834;2023-02-15T12:50:50;101335.06;;;20.04;44.82
75938;BME280;64615;32.062;34.834;2023-02-15T12:55:57;101337.38;;;20.01;44.72
75938;BME280;64615;32.062;34.834;2023-02-15T12:58:25;101339.25;;;20.00;44.62
75938;BME280;64615;32.062;34.834;2023-02-15T13:04:06;101344.22;;;20.03;44.50
75938;BME280;64615;32.062;34.834;2023-02-15T13:06:47;101336.09;;;20.03;44.48
75938;BME280;64615;32.062;34.834;2023-02-15T13:09:35;101348.56;;;20.04;44.69
75938;BME280;64615;32.062;34.834;2023-02-15T13:12:23;101352.31;;;20.03;44.68
75938;BME280;64615;32.062;34.834;2023-02-15T13:14:52;101348.16;;;20.01;44.47
75938;BME280;64615;32.062;34.834;2023-02-15T13:17:21;101352.75;;;20.00;44.54
75938;BME280;64615;32.062;34.834;2023-02-15T13:19:51;101355.09;;;19.97;44.75
75938;BME280;64615;32.062;34.834;2023-02-15T13:22:22;101358.84;;;19.96;44.77
75938;BME280;64615;32.062;34.834;2023-02-15T13:24:55;101365.06;;;19.96;44.58
75938;BME280;64615;32.062;34.834;2023-02-15T13:27:28;101365.91;;;19.97;44.78
75938;BME280;64615;32.062;34.834;2023-02-15T13:30:03;101367.09;;;20.01;44.60
75938;BME280;64615;32.062;34.834;2023-02-15T13:32:36;101362.72;;;20.00;44.78
75938;BME280;64615;32.062;34.834;2023-02-15T13:35:04;101363.66;;;19.94;44.75
75938;BME280;64615;32.062;34.834;2023-02-15T13:42:39;101377.16;;;19.94;44.66
75938;BME280;64615;32.062;34.834;2023-02-15T13:51:06;101383.22;;;19.89;44.89
75938;BME280;64615;32.062;34.834;2023-02-15T14:07:04;101387.66;;;19.83;44.79
75938;BME280;64615;32.062;34.834;2023-02-15T14:15:32;101392.47;;;19.81;45.01
75938;BME280;64615;32.062;34.834;2023-02-15T14:24:36;101404.91;;;19.82;45.23
75938;BME280;64615;32.062;34.834;2023-02-15T14:29:16;101407.94;;;19.93;45.43
75938;BME280;64615;32.062;34.834;2023-02-15T14:31:57;101408.97;;;19.92;45.43
75938;BME280;64615;32.062;34.834;2023-02-15T14:34:45;101412.50;;;19.92;45.42
75938;BME280;64615;32.062;34.834;2023-02-15T14:37:13;101414.38;;;19.92;45.67
75938;BME280;64615;32.062;34.834;2023-02-15T14:42:43;101413.28;;;19.99;46.02
75938;BME280;64615;32.062;34.834;2023-02-15T14:48:11;101408.25;;;20.03;46.08
75938;BME280;64615;32.062;34.834;2023-02-15T14:50:40;101413.50;;;19.98;45.71
75938;BME280;64615;32.062;34.834;2023-02-15T14:53:17;101408.91;;;19.98;46.26
75938;BME280;64615;32.062;34.834;2023-02-15T14:55:47;101416.19;;;19.98;46.56
75938;BME280;64615;32.062;34.834;2023-02-15T14:58:29;101415.59;;;19.96;46.83
75938;BME280;64615;32.062;34.834;2023-02-15T15:01:04;101421.59;;;19.98;46.69
75938;BME280;64615;32.062;34.834;2023-02-15T15:03:31;101429.91;;;19.96;46.71
75938;BME280;64615;32.062;34.834;2023-02-15T15:05:59;101422.03;;;19.95;46.60
75938;BME280;64615;32.062;34.834;2023-02-15T15:08:33;101430.81;;;19.90;46.87
75938;BME280;64615;32.062;34.834;2023-02-15T15:13:59;101435.06;;;19.79;46.63
75938;BME280;64615;32.062;34.834;2023-02-15T15:19:05;101438.91;;;19.72;45.32
75938;BME280;64615;32.062;34.834;2023-02-15T15:49:37;101466.63;;;19.61;46.15
75938;BME280;64615;32.062;34.834;2023-02-15T15:52:12;101460.84;;;19.57;46.08
75938;BME280;64615;32.062;34.834;2023-02-15T15:54:40;101466.00;;;19.59;46.10
75938;BME280;64615;32.062;34.834;2023-02-15T15:59:57;101469.38;;;19.54;46.13